createdAt,value
2018-08-23T00:01:54.041Z,5.07
2018-08-23T00:04:57.662Z,5.13
2018-08-23T00:08:08.595Z,3.60
2018-08-23T00:11:12.262Z,3.23
2018-08-23T00:14:16.525Z,3.73
2018-08-23T00:17:20.402Z,3.60
2018-08-23T00:20:24.816Z,3.20
2018-08-23T00:23:28.727Z,7.73
2018-08-23T00:26:32.418Z,7.97
2018-08-23T00:29:36.051Z,4.13
2018-08-23T00:32:39.654Z,4.13
2018-08-23T00:35:43.538Z,3.80
2018-08-23T00:38:47.292Z,3.63
2018-08-23T00:41:56.427Z,3.30
2018-08-23T00:45:01.560Z,3.20
2018-08-23T00:48:05.210Z,3.50
2018-08-23T00:51:08.927Z,3.57
2018-08-23T00:54:12.999Z,3.50
2018-08-23T00:57:16.559Z,3.90
2018-08-23T01:00:21.868Z,3.83
2018-08-23T01:03:25.495Z,2.90
2018-08-23T01:06:42.078Z,8.93
2018-08-23T01:09:45.770Z,16.37
2018-08-23T01:12:53.370Z,7.43
2018-08-23T01:15:56.998Z,4.93
2018-08-23T01:19:06.183Z,3.87
2018-08-23T01:22:09.833Z,3.33
2018-08-23T01:25:13.723Z,3.70
2018-08-23T01:28:17.463Z,3.13
2018-08-23T01:31:28.646Z,3.53
2018-08-23T01:34:32.281Z,3.50
2018-08-23T01:37:38.781Z,3.33
2018-08-23T01:40:42.502Z,12.63
2018-08-23T01:43:46.132Z,10.87
2018-08-23T01:46:49.762Z,4.30
2018-08-23T01:50:00.330Z,3.83
2018-08-23T01:53:04.063Z,13.00
2018-08-23T01:56:08.157Z,3.80
2018-08-23T01:59:11.821Z,4.93
2018-08-23T02:02:18.429Z,3.50
2018-08-23T02:05:22.089Z,3.93
2018-08-23T02:08:25.687Z,3.60
2018-08-23T02:11:29.313Z,3.50
2018-08-23T02:14:37.188Z,3.37
2018-08-23T02:17:46.226Z,3.50
2018-08-23T02:20:50.618Z,2.90
2018-08-23T02:23:54.486Z,3.07
2018-08-23T02:26:58.093Z,3.23
2018-08-23T02:30:01.727Z,12.47
2018-08-23T02:33:05.331Z,6.17
2018-08-23T02:36:15.414Z,3.17
2018-08-23T02:39:18.998Z,3.30
2018-08-23T02:42:22.622Z,3.20
2018-08-23T02:45:31.116Z,3.20
2018-08-23T02:48:34.754Z,3.30
2018-08-23T02:51:44.004Z,2.90
2018-08-23T02:54:47.627Z,3.17
2018-08-23T02:58:00.752Z,3.23
2018-08-23T03:01:04.671Z,3.23
2018-08-23T03:04:11.472Z,5.27
2018-08-23T03:07:15.088Z,3.53
2018-08-23T03:10:18.693Z,3.33
2018-08-23T03:13:24.424Z,3.33
2018-08-23T03:16:38.950Z,3.70
2018-08-23T03:20:11.943Z,4.10
2018-08-23T03:23:15.562Z,3.17
2018-08-23T03:26:19.203Z,4.23
2018-08-23T03:29:22.822Z,3.40
2018-08-23T03:32:26.517Z,2.80
2018-08-23T03:35:30.126Z,2.93
2018-08-23T03:38:33.747Z,3.60
2018-08-23T03:41:37.448Z,3.37
2018-08-23T03:44:41.086Z,3.50
2018-08-23T03:47:55.101Z,3.53
2018-08-23T03:50:58.744Z,3.50
2018-08-23T03:54:02.387Z,3.50
2018-08-23T03:57:13.702Z,3.37
2018-08-23T04:00:18.369Z,3.60
2018-08-23T04:03:22.030Z,3.87
2018-08-23T04:06:33.007Z,3.87
2018-08-23T04:09:36.643Z,3.50
2018-08-23T04:12:42.657Z,3.37
2018-08-23T04:15:46.295Z,3.50
2018-08-23T04:18:49.907Z,4.73
2018-08-23T04:21:53.523Z,3.53
2018-08-23T04:24:57.458Z,3.73
2018-08-23T04:28:01.080Z,4.40
2018-08-23T04:31:04.725Z,4.10
2018-08-23T04:34:08.592Z,7.60
2018-08-23T04:37:12.302Z,4.50
2018-08-23T04:40:15.929Z,4.67
2018-08-23T04:43:19.542Z,4.00
2018-08-23T04:46:23.172Z,4.60
2018-08-23T04:49:26.770Z,4.30
2018-08-23T04:52:30.488Z,4.23
2018-08-23T04:55:34.098Z,4.50
2018-08-23T04:58:37.735Z,4.95
2018-08-23T05:01:41.430Z,6.03
2018-08-23T05:04:45.062Z,6.05
2018-08-23T05:07:48.782Z,5.30
2018-08-23T05:10:52.424Z,5.20
2018-08-23T05:13:56.073Z,5.97
2018-08-23T05:16:59.676Z,5.92
2018-08-23T05:20:03.315Z,6.08
2018-08-23T05:23:06.955Z,5.50
2018-08-23T05:26:16.967Z,6.00
2018-08-23T05:29:20.585Z,5.10
2018-08-23T05:32:24.194Z,5.22
2018-08-23T05:35:28.921Z,5.00
2018-08-23T05:38:32.566Z,5.50
2018-08-23T05:41:36.283Z,5.70
2018-08-23T05:44:39.919Z,5.65
2018-08-23T05:47:43.598Z,6.15
2018-08-23T05:50:47.182Z,6.08
2018-08-23T05:53:55.272Z,5.47
2018-08-23T05:56:58.886Z,5.60
2018-08-23T06:00:02.520Z,5.40
2018-08-23T06:03:06.386Z,6.37
2018-08-23T06:06:10.014Z,5.70
2018-08-23T06:09:15.379Z,5.50
2018-08-23T06:12:19.019Z,6.50
2018-08-23T06:15:22.661Z,6.20
2018-08-23T06:18:27.214Z,12.07
2018-08-23T06:21:30.818Z,5.75
2018-08-23T06:24:34.467Z,6.17
2018-08-23T06:27:38.099Z,6.37
2018-08-23T06:30:41.746Z,5.97
2018-08-23T06:33:49.547Z,6.75
2018-08-23T06:36:53.763Z,6.40
2018-08-23T06:39:57.382Z,6.10
2018-08-23T06:43:04.166Z,5.85
2018-08-23T06:46:07.789Z,5.60
2018-08-23T06:49:11.432Z,5.70
2018-08-23T06:52:27.397Z,5.67
2018-08-23T06:55:35.415Z,4.40
2018-08-23T06:58:39.078Z,5.10
2018-08-23T07:01:47.542Z,5.15
2018-08-23T07:04:51.959Z,4.97
2018-08-23T07:07:55.602Z,5.03
2018-08-23T07:11:08.483Z,6.10
2018-08-23T07:14:16.492Z,6.30
2018-08-23T07:17:26.229Z,5.40
2018-08-23T07:20:29.923Z,4.92
2018-08-23T07:23:35.606Z,5.58
2018-08-23T07:26:39.235Z,4.58
2018-08-23T07:29:44.372Z,4.60
2018-08-23T07:32:49.296Z,4.83
2018-08-23T07:36:04.385Z,3.92
2018-08-23T07:39:08.014Z,4.33
2018-08-23T07:42:11.642Z,4.58
2018-08-23T07:45:15.288Z,5.87
2018-08-23T07:48:18.995Z,4.67
2018-08-23T07:51:24.690Z,5.70
2018-08-23T07:54:28.314Z,4.97
2018-08-23T07:57:33.063Z,4.90
2018-08-23T08:00:40.590Z,4.37
2018-08-23T08:03:44.222Z,4.00
2018-08-23T08:06:47.855Z,4.22
2018-08-23T08:09:51.472Z,4.10
2018-08-23T08:12:55.117Z,4.70
2018-08-23T08:16:08.954Z,3.80
2018-08-23T08:19:12.618Z,4.37
2018-08-23T08:22:16.303Z,4.40
2018-08-23T08:25:20.184Z,4.00
2018-08-23T08:28:23.918Z,3.67
2018-08-23T08:31:27.670Z,3.95
2018-08-23T08:34:31.387Z,3.77
2018-08-23T08:37:35.004Z,5.42
2018-08-23T08:40:38.656Z,3.90
2018-08-23T08:43:43.667Z,3.90
2018-08-23T08:46:47.506Z,3.95
2018-08-23T08:49:51.127Z,4.40
2018-08-23T08:52:54.778Z,3.83
2018-08-23T08:55:58.442Z,4.05
2018-08-23T08:59:02.085Z,3.50
2018-08-23T09:02:05.733Z,3.40
2018-08-23T09:05:10.104Z,4.05
2018-08-23T09:08:13.683Z,3.62
2018-08-23T09:11:20.788Z,3.77
2018-08-23T09:14:24.494Z,4.20
2018-08-23T09:17:37.934Z,4.03
2018-08-23T09:20:41.598Z,3.65
2018-08-23T09:23:45.596Z,3.52
2018-08-23T09:26:49.285Z,4.08
2018-08-23T09:29:52.946Z,3.65
2018-08-23T09:32:57.027Z,3.60
2018-08-23T09:36:00.640Z,3.98
2018-08-23T09:39:06.894Z,3.83
2018-08-23T09:42:11.285Z,3.20
2018-08-23T09:45:16.974Z,4.67
2018-08-23T09:48:21.702Z,3.55
2018-08-23T09:51:30.727Z,3.60
2018-08-23T09:54:34.330Z,4.78
2018-08-23T09:57:38.151Z,4.08
2018-08-23T10:00:47.288Z,3.80
2018-08-23T10:03:56.344Z,3.77
2018-08-23T10:07:05.649Z,3.47
2018-08-23T10:10:14.986Z,4.42
2018-08-23T10:13:24.393Z,3.80
2018-08-23T10:16:33.977Z,4.05
2018-08-23T10:19:43.154Z,4.35
2018-08-23T10:23:50.188Z,4.50
2018-08-23T10:26:54.362Z,4.00
2018-08-23T10:29:58.040Z,3.75
2018-08-23T10:33:01.663Z,7.85
2018-08-23T10:36:05.301Z,4.60
2018-08-23T10:39:10.585Z,4.60
2018-08-23T10:42:15.137Z,4.10
2018-08-23T10:45:18.813Z,4.12
2018-08-23T10:48:22.470Z,4.50
2018-08-23T10:51:26.102Z,4.10
2018-08-23T10:54:29.962Z,4.45
2018-08-23T10:57:33.695Z,4.50
2018-08-23T11:00:37.359Z,4.30
2018-08-23T11:03:41.102Z,5.45
2018-08-23T11:06:50.231Z,4.40
2018-08-23T11:09:59.407Z,4.75
2018-08-23T11:13:08.570Z,4.45
2018-08-23T11:16:17.817Z,4.58
2018-08-23T11:19:26.756Z,4.95
2018-08-23T11:22:36.074Z,4.50
2018-08-23T11:25:39.774Z,5.03
2018-08-23T11:28:43.606Z,4.10
2018-08-23T11:31:47.189Z,4.60
2018-08-23T11:34:50.835Z,5.08
2018-08-23T11:37:55.482Z,4.37
2018-08-23T11:40:59.127Z,4.53
2018-08-23T11:44:02.724Z,5.08
2018-08-23T11:47:06.446Z,5.15
2018-08-23T11:50:10.144Z,5.40
2018-08-23T11:53:13.773Z,4.87
2018-08-23T11:56:17.374Z,5.00
2018-08-23T11:59:21.050Z,5.10
2018-08-23T12:02:24.658Z,5.28
2018-08-23T12:05:28.308Z,5.15
2018-08-23T12:08:31.957Z,5.33
2018-08-23T12:11:35.579Z,4.90
2018-08-23T12:14:39.190Z,5.75
2018-08-23T12:17:42.852Z,5.30
2018-08-23T12:20:46.451Z,4.90
2018-08-23T12:23:50.170Z,7.55
2018-08-23T12:26:53.760Z,5.40
2018-08-23T12:29:57.655Z,5.87
2018-08-23T12:33:01.316Z,5.25
2018-08-23T12:36:06.919Z,6.10
2018-08-23T12:39:16.128Z,5.90
2018-08-23T12:42:25.230Z,5.50
2018-08-23T12:45:28.839Z,5.78
2018-08-23T12:48:32.686Z,5.55
2018-08-23T12:51:36.503Z,4.70
2018-08-23T12:54:40.157Z,4.90
2018-08-23T12:57:43.784Z,5.97
2018-08-23T13:00:47.383Z,5.00
2018-08-23T13:03:51.070Z,5.90
2018-08-23T13:06:54.624Z,5.60
2018-08-23T13:09:58.263Z,6.22
2018-08-23T13:13:01.924Z,6.12
2018-08-23T13:16:05.940Z,5.25
2018-08-23T13:19:09.540Z,6.40
2018-08-23T13:22:17.440Z,5.90
2018-08-23T13:25:21.046Z,6.22
2018-08-23T13:28:25.570Z,6.60
2018-08-23T13:31:29.534Z,6.78
2018-08-23T13:34:33.166Z,5.85
2018-08-23T13:37:36.806Z,6.83
2018-08-23T13:40:40.483Z,6.42
2018-08-23T13:43:44.086Z,6.40
2018-08-23T13:46:47.723Z,6.50
2018-08-23T13:49:51.342Z,7.17
2018-08-23T13:52:55.046Z,9.35
2018-08-23T13:55:58.699Z,9.98
2018-08-23T13:59:02.449Z,9.33
2018-08-23T14:02:06.052Z,11.18
2018-08-23T14:05:09.681Z,11.10
2018-08-23T14:08:14.067Z,11.25
2018-08-23T14:11:17.677Z,14.40
2018-08-23T14:14:21.471Z,12.80
2018-08-23T14:17:26.122Z,11.18
2018-08-23T14:20:29.863Z,11.70
2018-08-23T14:23:33.717Z,12.20
2018-08-23T14:26:37.362Z,12.90
2018-08-23T14:29:41.003Z,10.35
2018-08-23T14:32:44.784Z,10.03
2018-08-23T14:35:48.742Z,11.38
2018-08-23T14:38:52.613Z,9.70
2018-08-23T14:41:56.183Z,8.63
2018-08-23T14:44:59.823Z,8.23
2018-08-23T14:48:12.218Z,8.65
2018-08-23T14:51:18.468Z,7.45
2018-08-23T14:54:27.458Z,7.50
2018-08-23T14:57:32.943Z,8.18
2018-08-23T15:00:36.645Z,8.60
2018-08-23T15:03:40.280Z,8.15
2018-08-23T15:06:43.974Z,7.97
2018-08-23T15:09:47.620Z,6.72
2018-08-23T15:12:51.331Z,8.10
2018-08-23T15:15:54.987Z,7.85
2018-08-23T15:18:58.648Z,8.30
2018-08-23T15:22:02.275Z,6.60
2018-08-23T15:25:06.169Z,6.80
2018-08-23T15:28:09.785Z,8.05
2018-08-23T15:31:13.410Z,7.47
2018-08-23T15:34:17.027Z,7.60
2018-08-23T15:37:20.671Z,6.17
2018-08-23T15:40:24.275Z,6.05
2018-08-23T15:43:27.914Z,6.67
2018-08-23T15:46:36.914Z,6.35
2018-08-23T15:49:40.765Z,7.55
2018-08-23T15:52:44.429Z,7.00
2018-08-23T15:55:48.314Z,7.00
2018-08-23T15:58:51.883Z,5.50
2018-08-23T16:01:55.574Z,7.12
2018-08-23T16:04:59.357Z,5.30
2018-08-23T16:08:03.030Z,5.40
2018-08-23T16:11:06.719Z,5.10
2018-08-23T16:14:10.349Z,5.28
2018-08-23T16:17:19.461Z,5.40
2018-08-23T16:20:28.661Z,5.35
2018-08-23T16:23:32.318Z,5.58
2018-08-23T16:26:41.383Z,4.58
2018-08-23T16:29:49.003Z,5.25
2018-08-23T16:32:52.615Z,5.78
2018-08-23T16:35:56.299Z,5.62
2018-08-23T16:38:59.901Z,5.35
2018-08-23T16:42:03.585Z,5.87
2018-08-23T16:45:07.199Z,5.47
2018-08-23T16:48:10.823Z,5.30
2018-08-23T16:51:14.715Z,5.97
2018-08-23T16:54:18.431Z,7.30
2018-08-23T16:57:22.110Z,5.58
2018-08-23T17:00:26.596Z,5.40
2018-08-23T17:03:30.302Z,5.22
2018-08-23T17:06:34.001Z,5.40
2018-08-23T17:09:37.630Z,6.47
2018-08-23T17:12:41.681Z,5.37
2018-08-23T17:15:50.973Z,6.83
2018-08-23T17:18:54.654Z,5.25
2018-08-23T17:21:58.503Z,6.00
2018-08-23T17:25:02.255Z,7.17
2018-08-23T17:28:05.767Z,5.65
2018-08-23T17:31:09.980Z,6.20
2018-08-23T17:34:13.684Z,6.95
2018-08-23T17:37:17.311Z,6.28
2018-08-23T17:40:20.937Z,6.70
2018-08-23T17:43:24.676Z,6.15
2018-08-23T17:46:28.282Z,5.22
2018-08-23T17:49:32.287Z,5.35
2018-08-23T17:52:35.846Z,7.50
2018-08-23T17:55:39.570Z,7.50
2018-08-23T17:58:43.186Z,10.60
2018-08-23T18:01:47.007Z,7.60
2018-08-23T18:04:51.078Z,7.87
2018-08-23T18:07:54.712Z,6.20
2018-08-23T18:10:58.321Z,6.37
2018-08-23T18:14:02.010Z,5.12
2018-08-23T18:17:05.622Z,5.45
2018-08-23T18:20:10.364Z,5.70
2018-08-23T18:23:13.982Z,4.92
2018-08-23T18:26:17.655Z,4.60
2018-08-23T18:29:21.256Z,4.72
2018-08-23T18:32:25.010Z,5.62
2018-08-23T18:35:28.717Z,5.70
2018-08-23T18:38:32.390Z,6.33
2018-08-23T18:41:36.019Z,7.00
2018-08-23T18:44:39.661Z,5.12
2018-08-23T18:47:43.348Z,5.10
2018-08-23T18:50:47.008Z,4.75
2018-08-23T18:53:50.739Z,4.42
2018-08-23T18:56:54.609Z,5.00
2018-08-23T18:59:58.218Z,5.37
2018-08-23T19:03:01.821Z,5.83
2018-08-23T19:06:05.450Z,7.03
2018-08-23T19:09:11.367Z,11.60
2018-08-23T19:12:14.937Z,6.03
2018-08-23T19:15:24.104Z,5.15
2018-08-23T19:18:27.786Z,7.87
2018-08-23T19:21:32.248Z,7.58
2018-08-23T19:24:35.971Z,6.00
2018-08-23T19:27:39.683Z,6.83
2018-08-23T19:30:43.544Z,7.05
2018-08-23T19:33:47.147Z,6.33
2018-08-23T19:36:50.752Z,7.25
2018-08-23T19:39:54.647Z,6.85
2018-08-23T19:42:59.426Z,6.03
2018-08-23T19:46:08.479Z,6.35
2018-08-23T19:49:17.565Z,10.50
2018-08-23T19:52:21.658Z,8.40
2018-08-23T19:55:25.247Z,19.98
2018-08-23T19:58:28.946Z,13.40
2018-08-23T20:01:32.595Z,21.33
2018-08-23T20:04:36.254Z,9.68
2018-08-23T20:07:40.017Z,8.75
2018-08-23T20:10:43.590Z,11.30
2018-08-23T20:13:47.194Z,7.47
2018-08-23T20:16:50.995Z,8.00
2018-08-23T20:19:54.831Z,8.05
2018-08-23T20:22:58.751Z,12.05
2018-08-23T20:26:02.399Z,10.00
2018-08-23T20:29:06.338Z,10.35
2018-08-23T20:32:10.067Z,24.67
2018-08-23T20:35:13.629Z,29.32
2018-08-23T20:38:17.257Z,9.75
2018-08-23T20:41:20.919Z,8.10
2018-08-23T20:44:24.522Z,8.70
2018-08-23T20:47:28.151Z,8.63
2018-08-23T20:50:31.773Z,14.05
2018-08-23T20:53:35.403Z,8.88
2018-08-23T20:56:38.998Z,9.83
2018-08-23T20:59:42.680Z,7.47
2018-08-23T21:02:46.286Z,8.23
2018-08-23T21:05:49.918Z,9.10
2018-08-23T21:08:53.691Z,8.70
2018-08-23T21:11:57.303Z,8.73
2018-08-23T21:15:00.914Z,9.03
2018-08-23T21:18:06.239Z,8.78
2018-08-23T21:21:09.785Z,10.48
2018-08-23T21:24:13.423Z,9.95
2018-08-23T21:27:17.040Z,7.92
2018-08-23T21:30:20.678Z,8.23
2018-08-23T21:33:24.381Z,10.00
2018-08-23T21:36:27.998Z,6.20
2018-08-23T21:39:31.618Z,7.97
2018-08-23T21:42:35.318Z,7.20
2018-08-23T21:45:38.875Z,7.28
2018-08-23T21:48:42.568Z,11.78
2018-08-23T21:51:46.173Z,7.17
2018-08-23T21:54:49.810Z,7.80
2018-08-23T21:57:53.443Z,7.12
2018-08-23T22:01:02.640Z,7.33
2018-08-23T22:04:06.245Z,7.97
2018-08-23T22:07:09.997Z,7.70
2018-08-23T22:10:13.661Z,9.33
2018-08-23T22:13:17.498Z,7.65
2018-08-23T22:16:21.100Z,8.98
2018-08-23T22:19:24.756Z,8.85
2018-08-23T22:22:28.730Z,11.55
2018-08-23T22:25:32.362Z,10.32
2018-08-23T22:28:35.994Z,13.22
2018-08-23T22:31:39.613Z,14.07
2018-08-23T22:34:43.440Z,12.00
2018-08-23T22:37:47.050Z,14.15
2018-08-23T22:40:50.693Z,15.95
2018-08-23T22:43:54.306Z,18.87
2018-08-23T22:46:57.949Z,15.53
2018-08-23T22:50:01.617Z,17.02
2018-08-23T22:53:05.318Z,13.95
2018-08-23T22:56:08.936Z,13.62
2018-08-23T22:59:12.575Z,15.90
2018-08-23T23:02:21.709Z,14.45
2018-08-23T23:05:25.411Z,16.77
2018-08-23T23:08:28.954Z,17.50
2018-08-23T23:11:32.670Z,16.42
2018-08-23T23:14:36.244Z,23.18
2018-08-23T23:17:39.907Z,16.90
2018-08-23T23:20:43.528Z,16.32
2018-08-23T23:23:47.256Z,14.90
2018-08-23T23:26:50.840Z,16.95
2018-08-23T23:29:54.478Z,14.85
2018-08-23T23:32:58.094Z,15.20
2018-08-23T23:36:01.717Z,17.80
2018-08-23T23:39:06.712Z,17.95
2018-08-23T23:42:10.324Z,23.12
2018-08-23T23:45:13.954Z,20.17
2018-08-23T23:48:17.581Z,23.85
2018-08-23T23:51:21.213Z,25.70
2018-08-23T23:54:25.369Z,25.57
2018-08-23T23:57:29.009Z,29.42
